This is the latest recevied weather packets stored in our database for station/object OE5HCE. If no packets are shown the sender has not sent any weather packets the latest 10 day(s).
| Time | Temp. | Humidity | Pressure | Rain* | Wind** | Luminosity | Snow |
|---|---|---|---|---|---|---|---|
| 1777478407 | 17.78° C | 30% | 1022.7 hPa | 0 mm | - | 297 W/m² | - |
| 1777477507 | 18.33° C | 30% | 1022.7 hPa | 0 mm | - | 343 W/m² | - |
| 1777476606 | 17.78° C | 31% | 1022.8 hPa | 0 mm | - | 381 W/m² | - |
| 1777475711 | 18.33° C | 31% | 1022.7 hPa | 0 mm | - | 424 W/m² | - |
| 1777474803 | 17.78° C | 31% | 1022.8 hPa | 0 mm | - | 464 W/m² | - |
| 1777473903 | 18.33° C | 32% | 1022.7 hPa | 0 mm | - | 506 W/m² | - |
| 1777473002 | 18.33° C | 30% | 1022.8 hPa | 0 mm | - | 541 W/m² | - |
| 1777472174 | 18.33° C | 34% | 1022.8 hPa | 0 mm | - | 570 W/m² | - |
| 1777471269 | 17.78° C | 33% | 1022.8 hPa | 0 mm | - | 606 W/m² | - |
| 1777470361 | 17.78° C | 34% | 1022.8 hPa | 0 mm | - | 629 W/m² | - |
| 1777469480 | 17.22° C | 36% | 1022.8 hPa | 0 mm | - | 657 W/m² | - |
| 1777468556 | 17.22° C | 35% | 1022.9 hPa | 0 mm | - | 494 W/m² | - |
| 1777467654 | 17.22° C | 36% | 1023 hPa | 0 mm | - | 703 W/m² | - |
| 1777466752 | 17.22° C | 37% | 1023 hPa | 0 mm | - | 729 W/m² | - |
| 1777465854 | 17.22° C | 37% | 1023 hPa | 0 mm | - | 749 W/m² | - |
| 1777464949 | 16.11° C | 37% | 1023.1 hPa | 0 mm | - | 759 W/m² | - |
| 1777464052 | 16.11° C | 36% | 1023 hPa | 0 mm | - | 777 W/m² | - |
| 1777463146 | 16.11° C | 37% | 1023.2 hPa | 0 mm | - | 798 W/m² | - |
| 1777462244 | 15.56° C | 38% | 1023.2 hPa | 0 mm | - | 805 W/m² | - |
| 1777461342 | 15.56° C | 38% | 1023.2 hPa | 0 mm | - | 708 W/m² | - |
| 1777460459 | 14.44° C | 38% | 1023.4 hPa | 0 mm | - | 635 W/m² | - |
| 1777459540 | 14.44° C | 37% | 1023.4 hPa | 0 mm | - | 517 W/m² | - |
| 1777458640 | 14.44° C | 38% | 1023.5 hPa | 0 mm | - | 817 W/m² | - |
| 1777457735 | 13.89° C | 37% | 1023.6 hPa | 0 mm | - | 330 W/m² | - |
| 1777456845 | 14.44° C | 37% | 1023.6 hPa | 0 mm | - | 838 W/m² | - |
* Rain latest hour (hover to see other rain measurements)
** Current wind speed in m/s (hover to see current wind gust speed)